Time;durP1;ratioP1;P1;durP2;ratioP2;P2;SDS_P1;SDS_P2;PMS_P1;PMS_P2;Temp;Humidity;BMP_temperature;BMP_pressure;BME280_temperature;BME280_humidity;BME280_pressure;Samples;Min_cycle;Max_cycle;Signal;HPM_P1;HPM_P2
2021/01/30 00:00:26;;;;;;;6.40;5.10;;;;;21.30;98896.00;;;;2070391;28;20675;-54
2021/01/30 00:01:26;;;;;;;5.03;4.20;;;;;21.40;98902.00;;;;2070197;28;20222;-52
2021/01/30 00:02:27;;;;;;;7.37;4.97;;;;;21.40;98894.00;;;;2070688;28;20298;-53
2021/01/30 00:03:27;;;;;;;5.33;4.33;;;;;21.40;98906.00;;;;2070998;28;20203;-53
2021/01/30 00:04:27;;;;;;;6.73;4.90;;;;;21.40;98896.00;;;;2070365;28;20207;-53
2021/01/30 00:05:28;;;;;;;6.70;4.93;;;;;21.40;98908.00;;;;2069849;28;20675;-53
2021/01/30 00:06:28;;;;;;;5.00;4.60;;;;;21.40;98903.00;;;;2071000;28;20572;-52
2021/01/30 00:07:28;;;;;;;5.23;4.73;;;;;21.40;98898.00;;;;2071021;28;20321;-53
2021/01/30 00:08:29;;;;;;;5.93;4.77;;;;;21.40;98899.00;;;;2070612;28;20213;-52
2021/01/30 00:09:30;;;;;;;5.27;4.77;;;;;21.40;98911.00;;;;2070572;28;20211;-52
2021/01/30 00:10:30;;;;;;;5.70;4.50;;;;;21.40;98902.00;;;;2070840;28;20508;-52
2021/01/30 00:11:30;;;;;;;6.10;4.97;;;;;21.40;98909.00;;;;2071031;28;20491;-54
2021/01/30 00:12:31;;;;;;;5.20;4.80;;;;;21.40;98916.00;;;;2070690;28;20226;-53
2021/01/30 00:13:31;;;;;;;4.90;4.50;;;;;21.40;98904.00;;;;2070686;28;20309;-52
2021/01/30 00:14:34;;;;;;;5.10;4.60;;;;;21.40;98911.00;;;;2070662;28;20211;-54
2021/01/30 00:15:34;;;;;;;5.63;4.50;;;;;21.40;98914.00;;;;2070086;28;20214;-53
2021/01/30 00:16:34;;;;;;;6.63;4.77;;;;;21.40;98912.00;;;;2069914;28;20214;-52
2021/01/30 00:17:35;;;;;;;4.97;4.47;;;;;21.40;98921.00;;;;2070309;28;20222;-51
2021/01/30 00:18:35;;;;;;;5.27;4.10;;;;;21.30;98921.00;;;;2070846;28;20218;-52
2021/01/30 00:19:36;;;;;;;5.70;4.60;;;;;21.30;98923.00;;;;2070577;28;20297;-51
2021/01/30 00:20:37;;;;;;;5.60;4.90;;;;;21.30;98925.00;;;;2070622;28;20219;-52
2021/01/30 00:21:37;;;;;;;5.07;4.57;;;;;21.40;98924.00;;;;2070739;28;20576;-52
2021/01/30 00:22:37;;;;;;;5.40;4.90;;;;;21.40;98922.00;;;;2063663;28;20509;-52
2021/01/30 00:23:38;;;;;;;5.13;4.63;;;;;21.40;98926.00;;;;2069710;28;20221;-53
2021/01/30 00:24:44;;;;;;;5.40;4.60;;;;;21.40;98917.00;;;;2070725;28;20211;-53
2021/01/30 00:25:44;;;;;;;4.97;4.38;;;;;21.40;98922.00;;;;2077817;28;20234;-53
2021/01/30 00:26:52;;;;;;;5.43;4.13;;;;;21.40;98924.00;;;;2079006;28;20201;-53
2021/01/30 00:27:52;;;;;;;6.32;4.72;;;;;21.40;98933.00;;;;2071651;28;20329;-54
2021/01/30 00:28:53;;;;;;;4.93;4.30;;;;;21.30;98927.00;;;;2078413;28;20210;-53
2021/01/30 00:29:53;;;;;;;4.87;4.47;;;;;21.30;98931.00;;;;2078745;28;20214;-52
2021/01/30 00:30:53;;;;;;;5.10;4.60;;;;;21.30;98934.00;;;;2078646;28;20221;-52
2021/01/30 00:31:54;;;;;;;5.70;4.60;;;;;21.30;98926.00;;;;2078789;28;20214;-54
2021/01/30 00:32:54;;;;;;;4.77;4.37;;;;;21.30;98924.00;;;;2078765;28;20209;-52
2021/01/30 00:33:55;;;;;;;4.33;3.93;;;;;21.30;98924.00;;;;2078720;28;20210;-53
2021/01/30 00:34:55;;;;;;;4.70;4.30;;;;;21.30;98925.00;;;;2078809;28;20206;-53
2021/01/30 00:35:55;;;;;;;4.73;4.20;;;;;21.30;98925.00;;;;2077193;28;20293;-53
2021/01/30 00:36:56;;;;;;;4.87;4.40;;;;;21.30;98931.00;;;;2077857;28;20198;-52
2021/01/30 00:37:57;;;;;;;4.35;3.95;;;;;21.30;98928.00;;;;2078756;28;20202;-53
2021/01/30 00:38:57;;;;;;;5.70;4.17;;;;;21.30;98925.00;;;;2078724;28;20221;-52
2021/01/30 00:39:57;;;;;;;4.77;4.20;;;;;21.30;98924.00;;;;2078930;28;20203;-52
2021/01/30 00:40:58;;;;;;;5.53;4.50;;;;;21.30;98935.00;;;;2078791;28;20214;-52
2021/01/30 00:41:58;;;;;;;6.27;4.30;;;;;21.30;98942.00;;;;2078834;28;20264;-53
2021/01/30 00:42:59;;;;;;;4.73;3.80;;;;;21.20;98933.00;;;;2078645;28;20206;-54
2021/01/30 00:43:59;;;;;;;4.20;3.80;;;;;21.20;98933.00;;;;2078684;28;20222;-52
2021/01/30 00:44:59;;;;;;;4.40;4.00;;;;;21.20;98934.00;;;;2078755;28;20295;-53
2021/01/30 00:46:00;;;;;;;4.97;4.47;;;;;21.20;98936.00;;;;2076910;28;20696;-52
2021/01/30 00:47:00;;;;;;;4.93;4.43;;;;;21.00;98929.00;;;;2077758;28;20214;-52
2021/01/30 00:48:01;;;;;;;5.03;4.23;;;;;21.20;98941.00;;;;2079015;28;20304;-55
2021/01/30 00:49:01;;;;;;;5.37;4.40;;;;;21.20;98933.00;;;;2078636;28;20278;-52
2021/01/30 00:50:02;;;;;;;4.53;4.00;;;;;21.20;98933.00;;;;2072551;28;21003;-54
2021/01/30 00:51:03;;;;;;;4.47;4.07;;;;;21.20;98945.00;;;;2075624;28;20626;-53
2021/01/30 00:52:03;;;;;;;4.20;3.70;;;;;21.20;98947.00;;;;2074902;28;20266;-53
2021/01/30 00:53:04;;;;;;;4.70;4.30;;;;;21.20;98932.00;;;;2078770;28;20718;-52
2021/01/30 00:54:04;;;;;;;4.33;3.87;;;;;21.20;98932.00;;;;2078853;28;20271;-52
2021/01/30 00:55:05;;;;;;;3.90;3.60;;;;;21.20;98929.00;;;;2078784;28;20228;-52
2021/01/30 00:56:05;;;;;;;4.23;3.90;;;;;21.20;98936.00;;;;2077793;28;20690;-53
2021/01/30 00:57:06;;;;;;;4.77;4.20;;;;;21.20;98937.00;;;;2078663;28;21034;-52
2021/01/30 00:58:06;;;;;;;4.37;3.80;;;;;21.20;98921.00;;;;2078518;28;20311;-51
2021/01/30 00:59:07;;;;;;;5.27;4.40;;;;;21.20;98927.00;;;;2077244;28;20279;-53
2021/01/30 01:00:19;;;;;;;5.03;4.00;;;;;21.20;98932.00;;;;2078429;28;20226;-52
2021/01/30 01:01:19;;;;;;;3.90;3.50;;;;;21.20;98931.00;;;;2078195;28;20851;-52
2021/01/30 01:02:19;;;;;;;3.77;3.30;;;;;21.20;98930.00;;;;2078605;28;20220;-51
2021/01/30 01:03:20;;;;;;;4.10;3.70;;;;;21.20;98929.00;;;;2078667;28;20259;-51
2021/01/30 01:04:20;;;;;;;4.00;3.50;;;;;21.20;98937.00;;;;2078707;28;20225;-52
2021/01/30 01:05:21;;;;;;;4.10;3.67;;;;;21.20;98940.00;;;;2078320;28;20214;-51
2021/01/30 01:06:21;;;;;;;4.00;3.60;;;;;21.20;98932.00;;;;2078390;28;20220;-53
2021/01/30 01:07:21;;;;;;;3.70;3.40;;;;;21.20;98942.00;;;;2078617;28;20206;-51
2021/01/30 01:08:22;;;;;;;4.40;3.80;;;;;21.10;98942.00;;;;2078658;28;20218;-51
2021/01/30 01:09:22;;;;;;;3.60;3.30;;;;;21.20;98940.00;;;;2078542;28;20206;-53
2021/01/30 01:10:23;;;;;;;3.43;3.13;;;;;21.20;98939.00;;;;2078603;28;20926;-53
2021/01/30 01:11:23;;;;;;;4.00;3.37;;;;;21.20;98938.00;;;;2078630;28;20786;-53
2021/01/30 01:12:23;;;;;;;3.60;3.17;;;;;21.20;98936.00;;;;2078305;28;20214;-53
2021/01/30 01:13:24;;;;;;;2.80;2.60;;;;;21.10;98937.00;;;;2078115;28;20626;-52
2021/01/30 01:14:26;;;;;;;4.80;3.73;;;;;21.10;98948.00;;;;2077742;28;20297;-52
2021/01/30 01:15:26;;;;;;;4.53;3.10;;;;;21.10;98953.00;;;;2077485;28;20962;-52
2021/01/30 01:16:27;;;;;;;4.60;3.80;;;;;21.10;98945.00;;;;2078697;28;20205;-51
2021/01/30 01:17:27;;;;;;;4.20;3.40;;;;;21.10;98955.00;;;;2078662;28;20240;-52
2021/01/30 01:18:27;;;;;;;4.37;3.50;;;;;21.10;98962.00;;;;2078806;28;20305;-54
2021/01/30 01:19:28;;;;;;;4.10;3.70;;;;;21.10;98955.00;;;;2078687;28;20658;-52
2021/01/30 01:20:28;;;;;;;5.47;3.73;;;;;21.10;98951.00;;;;2077731;28;20718;-53
2021/01/30 01:21:28;;;;;;;4.03;3.20;;;;;21.10;98952.00;;;;2077602;28;20213;-52
2021/01/30 01:22:29;;;;;;;3.50;3.20;;;;;21.10;98964.00;;;;2070162;28;20230;-52
2021/01/30 01:23:29;;;;;;;3.23;2.93;;;;;21.10;98959.00;;;;2086271;28;20210;-52
2021/01/30 01:24:29;;;;;;;4.33;3.20;;;;;21.10;98963.00;;;;2077981;28;20694;-53
2021/01/30 01:25:30;;;;;;;4.00;3.07;;;;;21.10;98955.00;;;;2078076;28;20221;-53
2021/01/30 01:26:30;;;;;;;3.10;2.80;;;;;21.10;98958.00;;;;2080190;28;20213;-54
2021/01/30 01:27:30;;;;;;;5.50;3.20;;;;;21.10;98956.00;;;;2080310;28;20578;-53
2021/01/30 01:28:31;;;;;;;3.50;3.13;;;;;21.00;98962.00;;;;2072717;28;20310;-54
2021/01/30 01:29:31;;;;;;;4.37;2.93;;;;;21.10;98968.00;;;;2087463;28;20379;-52
2021/01/30 01:30:31;;;;;;;3.97;3.30;;;;;21.00;98968.00;;;;2082675;28;20220;-52
2021/01/30 01:31:32;;;;;;;3.90;3.60;;;;;21.00;98971.00;;;;2079609;28;20267;-53
2021/01/30 01:32:32;;;;;;;3.40;2.97;;;;;21.00;98968.00;;;;2079926;28;20209;-53
2021/01/30 01:33:32;;;;;;;3.13;2.83;;;;;21.00;98977.00;;;;2080213;28;20285;-52
2021/01/30 01:34:33;;;;;;;2.80;2.60;;;;;21.00;98977.00;;;;2080306;28;20221;-52
2021/01/30 01:35:33;;;;;;;4.40;3.20;;;;;21.00;98973.00;;;;2079095;28;20293;-52
2021/01/30 01:36:34;;;;;;;2.87;2.63;;;;;21.10;98975.00;;;;2080427;28;20216;-52
2021/01/30 01:37:34;;;;;;;3.20;2.77;;;;;21.00;98983.00;;;;2080234;28;20224;-52
2021/01/30 01:38:34;;;;;;;3.57;3.20;;;;;21.00;98981.00;;;;2080367;28;20210;-52
2021/01/30 01:39:35;;;;;;;5.77;3.10;;;;;21.00;98977.00;;;;2080227;28;20674;-53
2021/01/30 01:40:37;;;;;;;3.23;2.93;;;;;21.00;98976.00;;;;2080356;28;20292;-52
2021/01/30 01:41:37;;;;;;;3.80;3.40;;;;;21.00;98979.00;;;;2079413;28;20329;-52
2021/01/30 01:42:38;;;;;;;2.63;2.43;;;;;21.00;98975.00;;;;2080391;28;20706;-52
2021/01/30 01:43:38;;;;;;;3.07;2.77;;;;;21.00;98979.00;;;;2075544;28;20598;-53
2021/01/30 01:44:39;;;;;;;3.70;3.10;;;;;21.00;98980.00;;;;2077773;28;20205;-53
2021/01/30 01:45:40;;;;;;;2.80;2.50;;;;;21.00;98978.00;;;;2086547;28;20220;-52
2021/01/30 01:46:41;;;;;;;3.00;2.70;;;;;21.00;98974.00;;;;2080182;28;20245;-53
2021/01/30 01:47:43;;;;;;;2.90;2.60;;;;;21.00;98983.00;;;;2080137;28;20576;-53
2021/01/30 01:49:09;;;;;;;3.33;2.92;;;;;21.00;98973.00;;;;2079440;28;20205;-52
2021/01/30 01:50:40;;;;;;;3.20;2.92;;;;;21.00;98987.00;;;;2069540;28;20222;-52
2021/01/30 01:51:42;;;;;;;2.67;2.47;;;;;21.00;98978.00;;;;2074897;28;20928;-53
2021/01/30 01:52:43;;;;;;;3.60;2.50;;;;;21.00;98989.00;;;;2063234;28;20219;-52
2021/01/30 01:53:43;;;;;;;3.53;2.80;;;;;21.00;98986.00;;;;2064139;28;20307;-52
2021/01/30 01:54:44;;;;;;;4.17;2.80;;;;;21.00;98986.00;;;;2070516;28;20300;-52
2021/01/30 01:55:48;;;;;;;2.73;2.47;;;;;21.00;98990.00;;;;2061359;28;20715;-52
2021/01/30 01:56:49;;;;;;;3.10;2.60;;;;;21.00;98986.00;;;;2070900;28;20214;-52
2021/01/30 01:57:53;;;;;;;3.17;2.30;;;;;21.00;98993.00;;;;2078933;28;20301;-53
2021/01/30 01:58:58;;;;;;;3.20;2.90;;;;;21.00;98985.00;;;;2069933;28;20285;-52
2021/01/30 01:59:58;;;;;;;3.30;2.53;;;;;21.00;98992.00;;;;2057503;28;20717;-53
2021/01/30 02:00:59;;;;;;;2.77;2.57;;;;;20.90;98988.00;;;;2075108;28;20309;-52
2021/01/30 02:01:59;;;;;;;3.10;2.37;;;;;20.90;98997.00;;;;2079239;28;20324;-52
2021/01/30 02:02:59;;;;;;;3.40;2.93;;;;;20.90;98993.00;;;;2079512;28;20226;-52
2021/01/30 02:04:01;;;;;;;3.00;2.53;;;;;20.90;98992.00;;;;2080042;28;20221;-52
2021/01/30 02:05:09;;;;;;;2.65;2.40;;;;;20.90;98990.00;;;;2079236;28;20222;-53
2021/01/30 02:06:09;;;;;;;2.58;2.38;;;;;20.90;98996.00;;;;2078411;28;20244;-53
2021/01/30 02:07:10;;;;;;;2.20;2.10;;;;;20.90;99007.00;;;;2079328;28;20232;-53
2021/01/30 02:08:11;;;;;;;2.97;2.33;;;;;20.90;99003.00;;;;2079454;28;20217;-53
2021/01/30 02:09:14;;;;;;;2.85;2.42;;;;;20.90;98998.00;;;;2079382;28;20310;-51
2021/01/30 02:10:17;;;;;;;2.92;2.28;;;;;20.90;98999.00;;;;2078938;28;20229;-52
2021/01/30 02:11:18;;;;;;;1.95;1.85;;;;;20.90;99002.00;;;;2079924;28;20540;-52
2021/01/30 02:12:18;;;;;;;2.63;2.40;;;;;20.90;99002.00;;;;2079771;28;20312;-52
2021/01/30 02:13:26;;;;;;;2.20;2.00;;;;;20.90;99006.00;;;;2079470;28;20233;-52
2021/01/30 02:14:28;;;;;;;2.00;1.90;;;;;20.90;99006.00;;;;2078623;28;20220;-51
2021/01/30 02:15:28;;;;;;;2.72;2.47;;;;;20.90;99003.00;;;;2069407;28;20226;-52
2021/01/30 02:16:48;;;;;;;2.60;2.30;;;;;20.90;99006.00;;;;2072247;28;20217;-52
2021/01/30 02:18:20;;;;;;;2.70;2.50;;;;;20.90;99008.00;;;;2065694;28;20308;-52
2021/01/30 02:19:57;;;;;;;2.90;2.53;;;;;20.90;99008.00;;;;2074397;28;20690;-52
2021/01/30 02:21:25;;;;;;;3.17;2.97;;;;;20.90;99006.00;;;;2070363;28;20220;-53
2021/01/30 02:23:00;;;;;;;2.20;2.00;;;;;20.90;99014.00;;;;2078866;28;20240;-53
2021/01/30 02:24:52;;;;;;;2.63;2.25;;;;;20.90;99017.00;;;;2071691;28;20730;-52
2021/01/30 02:26:08;;;;;;;2.80;2.30;;;;;20.80;99017.00;;;;2078532;28;20214;-51
2021/01/30 02:27:21;;;;;;;2.60;2.40;;;;;20.80;99009.00;;;;2079611;28;20271;-52
2021/01/30 02:28:42;;;;;;;2.15;1.95;;;;;20.80;99004.00;;;;2079049;28;20217;-52
2021/01/30 02:29:58;;;;;;;2.10;1.90;;;;;20.80;99020.00;;;;2078907;28;20237;-52
2021/01/30 02:31:29;;;;;;;2.58;2.35;;;;;20.80;99013.00;;;;2079561;28;20259;-53
2021/01/30 02:33:00;;;;;;;2.25;2.05;;;;;20.80;99009.00;;;;2079357;28;20709;-52
2021/01/30 02:34:25;;;;;;;2.40;2.20;;;;;20.80;99009.00;;;;2079262;28;20934;-53
2021/01/30 02:36:00;;;;;;;2.40;2.20;;;;;20.80;99014.00;;;;2069607;28;20215;-52
2021/01/30 02:37:02;;;;;;;2.33;2.13;;;;;20.80;99017.00;;;;2077741;28;20221;-53
2021/01/30 02:38:08;;;;;;;2.67;2.47;;;;;20.80;99018.00;;;;2079622;28;20301;-51
2021/01/30 02:39:29;;;;;;;2.70;2.50;;;;;20.80;99021.00;;;;2078623;28;20218;-52
2021/01/30 02:40:33;;;;;;;3.22;2.70;;;;;20.80;99022.00;;;;2075406;28;20225;-52
2021/01/30 02:41:35;;;;;;;3.10;2.30;;;;;20.80;99015.00;;;;2079030;28;20703;-54
2021/01/30 02:42:44;;;;;;;2.42;2.20;;;;;20.80;99022.00;;;;2078847;28;20210;-52
2021/01/30 02:43:45;;;;;;;3.13;2.75;;;;;20.80;99019.00;;;;2079125;28;20671;-52
2021/01/30 02:45:06;;;;;;;2.78;2.58;;;;;20.80;99015.00;;;;2078790;28;20863;-51
2021/01/30 02:46:11;;;;;;;2.90;2.70;;;;;20.80;99028.00;;;;2063994;28;20222;-52
2021/01/30 02:47:12;;;;;;;2.50;2.30;;;;;20.80;99030.00;;;;2058495;28;20220;-52
2021/01/30 02:48:18;;;;;;;3.58;3.25;;;;;20.80;99016.00;;;;2063462;28;20313;-52
2021/01/30 02:49:24;;;;;;;3.03;2.83;;;;;20.80;99026.00;;;;2063731;28;20250;-52
2021/01/30 02:50:28;;;;;;;2.88;2.67;;;;;20.80;99027.00;;;;2053798;28;20231;-51
2021/01/30 02:51:31;;;;;;;2.83;2.63;;;;;20.70;99024.00;;;;2070461;28;20211;-52
2021/01/30 02:52:32;;;;;;;3.35;2.80;;;;;20.80;99033.00;;;;2063273;28;20218;-51
2021/01/30 02:53:36;;;;;;;3.53;3.33;;;;;20.80;99034.00;;;;2062521;28;20215;-53
2021/01/30 02:54:36;;;;;;;3.00;2.80;;;;;20.70;99030.00;;;;2070929;28;20730;-52
2021/01/30 02:55:37;;;;;;;3.80;3.30;;;;;20.70;99023.00;;;;2077088;28;20213;-52
2021/01/30 02:56:38;;;;;;;3.40;3.20;;;;;20.70;99030.00;;;;2078843;28;20225;-52
2021/01/30 02:57:39;;;;;;;3.13;2.92;;;;;20.70;99030.00;;;;2079075;28;20302;-52
2021/01/30 02:58:51;;;;;;;3.47;3.27;;;;;20.70;99034.00;;;;2069787;28;20234;-52
2021/01/30 02:59:53;;;;;;;3.72;3.42;;;;;20.70;99037.00;;;;2078912;28;20307;-51
2021/01/30 03:00:56;;;;;;;3.88;3.58;;;;;20.70;99036.00;;;;2069526;28;20217;-52
2021/01/30 03:01:57;;;;;;;3.65;3.35;;;;;20.70;99030.00;;;;2061893;28;20277;-52
2021/01/30 03:02:57;;;;;;;4.20;3.90;;;;;20.70;99035.00;;;;2072869;28;20671;-52
2021/01/30 03:03:59;;;;;;;4.17;3.87;;;;;20.70;99027.00;;;;2079213;28;20605;-53
2021/01/30 03:05:00;;;;;;;4.28;3.97;;;;;20.70;99042.00;;;;2078449;28;20706;-53
2021/01/30 03:06:05;;;;;;;4.00;3.70;;;;;20.70;99042.00;;;;2078155;28;20221;-53
2021/01/30 03:07:43;;;;;;;4.15;3.85;;;;;20.70;99050.00;;;;2078966;28;20245;-52
2021/01/30 03:08:45;;;;;;;4.45;3.90;;;;;20.70;99048.00;;;;2078613;28;20213;-52
2021/01/30 03:09:51;;;;;;;4.10;3.80;;;;;20.70;99047.00;;;;2073115;28;20226;-52
2021/01/30 03:10:57;;;;;;;4.88;4.47;;;;;20.70;99055.00;;;;2078418;28;20225;-51
2021/01/30 03:12:25;;;;;;;3.92;3.63;;;;;20.60;99058.00;;;;2068833;28;20218;-52
2021/01/30 03:13:37;;;;;;;4.50;4.20;;;;;20.70;99048.00;;;;2065149;28;20214;-52
2021/01/30 03:14:45;;;;;;;4.30;3.90;;;;;20.60;99055.00;;;;2074420;28;20293;-52
2021/01/30 03:15:51;;;;;;;5.00;4.60;;;;;20.70;99056.00;;;;2059475;28;20242;-52
2021/01/30 03:16:51;;;;;;;4.50;4.10;;;;;20.60;99056.00;;;;2066679;28;20360;-53
2021/01/30 03:17:51;;;;;;;5.30;4.60;;;;;20.60;99055.00;;;;2073752;28;20237;-52
2021/01/30 03:18:56;;;;;;;3.93;3.63;;;;;20.60;99062.00;;;;2062206;28;20219;-52
2021/01/30 03:19:57;;;;;;;4.25;3.95;;;;;20.60;99072.00;;;;2062839;28;20234;-51
2021/01/30 03:20:57;;;;;;;4.77;4.40;;;;;20.60;99054.00;;;;2061971;28;20219;-54
2021/01/30 03:22:04;;;;;;;4.30;4.00;;;;;20.60;99061.00;;;;2069983;28;20607;-52
2021/01/30 03:23:05;;;;;;;4.38;4.07;;;;;20.60;99058.00;;;;2085960;28;20217;-53
2021/01/30 03:24:05;;;;;;;4.23;3.93;;;;;20.60;99060.00;;;;2077616;28;20788;-52
2021/01/30 03:25:07;;;;;;;4.40;4.10;;;;;20.60;99059.00;;;;2066050;28;20226;-53
2021/01/30 03:26:10;;;;;;;4.68;4.38;;;;;20.60;99062.00;;;;2076904;28;20305;-53
2021/01/30 03:27:20;;;;;;;4.40;4.10;;;;;20.60;99062.00;;;;2078212;28;20232;-53
2021/01/30 03:28:21;;;;;;;4.43;4.13;;;;;20.60;99068.00;;;;2078153;28;20738;-52
2021/01/30 03:29:21;;;;;;;4.40;4.10;;;;;20.60;99067.00;;;;2070091;28;20219;-52
2021/01/30 03:30:22;;;;;;;4.00;3.70;;;;;20.60;99062.00;;;;2078096;28;20324;-52
2021/01/30 03:31:23;;;;;;;4.90;4.50;;;;;20.60;99062.00;;;;2075406;28;20214;-52
2021/01/30 03:32:24;;;;;;;4.70;4.40;;;;;20.60;99064.00;;;;2078018;28;20241;-52
2021/01/30 03:33:24;;;;;;;4.83;4.53;;;;;20.60;99062.00;;;;2078720;28;20480;-52
2021/01/30 03:34:25;;;;;;;4.53;4.23;;;;;20.60;99073.00;;;;2078514;28;20536;-51
2021/01/30 03:35:25;;;;;;;4.50;4.20;;;;;20.60;99067.00;;;;2077613;28;20214;-52
2021/01/30 03:36:25;;;;;;;4.97;4.57;;;;;20.60;99065.00;;;;2078778;28;20210;-53
2021/01/30 03:37:26;;;;;;;4.83;4.43;;;;;20.60;99063.00;;;;2078372;28;20209;-52
2021/01/30 03:38:26;;;;;;;4.73;4.43;;;;;20.60;99062.00;;;;2078700;28;20222;-53
2021/01/30 03:39:26;;;;;;;5.27;4.87;;;;;20.60;99060.00;;;;2078468;28;20221;-52
2021/01/30 03:40:27;;;;;;;4.90;4.50;;;;;20.60;99060.00;;;;2078778;28;20210;-52
2021/01/30 03:41:27;;;;;;;5.20;4.80;;;;;20.60;99059.00;;;;2078873;28;20586;-52
2021/01/30 03:42:27;;;;;;;5.10;4.73;;;;;20.60;99074.00;;;;2078431;28;20245;-52
2021/01/30 03:43:28;;;;;;;5.20;4.80;;;;;20.60;99071.00;;;;2079224;28;20348;-52
2021/01/30 03:44:28;;;;;;;5.13;4.73;;;;;20.60;99073.00;;;;2078812;28;20214;-52
2021/01/30 03:45:29;;;;;;;5.00;4.60;;;;;20.60;99080.00;;;;2078077;28;20210;-52
2021/01/30 03:46:29;;;;;;;5.20;4.80;;;;;20.60;99078.00;;;;2079188;28;20275;-52
2021/01/30 03:47:29;;;;;;;5.10;4.70;;;;;20.60;99079.00;;;;2078449;28;20453;-52
2021/01/30 03:48:30;;;;;;;5.50;5.10;;;;;20.50;99081.00;;;;2078961;28;20233;-52
2021/01/30 03:49:30;;;;;;;5.73;5.17;;;;;20.60;99073.00;;;;2079233;28;20295;-52
2021/01/30 03:50:30;;;;;;;5.10;4.70;;;;;20.50;99086.00;;;;2076868;28;20232;-52
2021/01/30 03:51:31;;;;;;;5.03;4.67;;;;;20.50;99081.00;;;;2086647;28;20236;-52
2021/01/30 03:52:31;;;;;;;5.50;5.00;;;;;20.50;99083.00;;;;2079242;28;20214;-51
2021/01/30 03:53:31;;;;;;;4.93;4.57;;;;;20.50;99085.00;;;;2079420;28;20220;-52
2021/01/30 03:54:32;;;;;;;4.80;4.40;;;;;20.50;99085.00;;;;2078824;28;20297;-53
2021/01/30 03:55:32;;;;;;;4.40;4.07;;;;;20.50;99092.00;;;;2077620;28;20218;-53
2021/01/30 03:56:32;;;;;;;4.20;3.90;;;;;20.50;99082.00;;;;2079237;28;20210;-52
2021/01/30 03:57:33;;;;;;;5.20;4.80;;;;;20.50;99082.00;;;;2079342;28;20218;-51
2021/01/30 03:58:33;;;;;;;4.40;4.10;;;;;20.50;99079.00;;;;2079181;28;20293;-55
2021/01/30 03:59:34;;;;;;;4.60;4.30;;;;;20.50;99078.00;;;;2078859;28;20210;-52
2021/01/30 04:00:34;;;;;;;5.10;4.70;;;;;20.50;99087.00;;;;2079089;28;20320;-53
2021/01/30 04:01:35;;;;;;;4.50;4.20;;;;;20.50;99074.00;;;;2079362;28;20210;-52
2021/01/30 04:02:35;;;;;;;4.50;4.20;;;;;20.50;99076.00;;;;2078609;28;20297;-55
2021/01/30 04:03:35;;;;;;;4.73;4.40;;;;;20.50;99068.00;;;;2079313;28;20202;-53
2021/01/30 04:04:36;;;;;;;5.30;4.90;;;;;20.50;99073.00;;;;2078948;28;20301;-52
2021/01/30 04:05:36;;;;;;;5.27;4.77;;;;;20.50;99075.00;;;;2078248;28;20209;-54
2021/01/30 04:06:36;;;;;;;5.17;4.50;;;;;20.50;99080.00;;;;2078864;28;20202;-52
2021/01/30 04:07:37;;;;;;;4.83;4.43;;;;;20.50;99081.00;;;;2078902;28;20213;-52
2021/01/30 04:08:38;;;;;;;4.83;4.43;;;;;20.40;99076.00;;;;2078865;28;20210;-51
2021/01/30 04:09:38;;;;;;;5.20;4.70;;;;;20.40;99090.00;;;;2078973;28;20460;-53
2021/01/30 04:10:39;;;;;;;4.60;4.30;;;;;20.50;99086.00;;;;2079125;28;20687;-52
2021/01/30 04:11:40;;;;;;;5.13;4.73;;;;;20.40;99097.00;;;;2078222;28;20316;-52
2021/01/30 04:12:40;;;;;;;4.93;4.57;;;;;20.40;99094.00;;;;2078020;28;20214;-53
2021/01/30 04:13:40;;;;;;;5.13;4.63;;;;;20.40;99091.00;;;;2078766;28;20551;-53
2021/01/30 04:14:41;;;;;;;5.00;4.60;;;;;20.40;99093.00;;;;2077348;28;20630;-52
2021/01/30 04:15:42;;;;;;;4.60;4.20;;;;;20.40;99102.00;;;;2076617;28;21316;-52
2021/01/30 04:16:42;;;;;;;5.07;4.60;;;;;20.40;99090.00;;;;2078355;28;20218;-53
2021/01/30 04:17:43;;;;;;;4.20;3.80;;;;;20.40;99090.00;;;;2078512;28;20292;-52
2021/01/30 04:18:43;;;;;;;4.80;4.40;;;;;20.40;99097.00;;;;2078539;28;20213;-52
2021/01/30 04:19:43;;;;;;;4.40;4.10;;;;;20.50;99101.00;;;;2078132;28;20210;-52
2021/01/30 04:20:44;;;;;;;4.23;3.93;;;;;20.50;99095.00;;;;2078155;28;20307;-51
2021/01/30 04:21:44;;;;;;;4.67;4.37;;;;;20.40;99091.00;;;;2078650;28;20288;-52
2021/01/30 04:22:45;;;;;;;4.90;4.50;;;;;20.40;99087.00;;;;2078142;28;20667;-53
2021/01/30 04:23:46;;;;;;;4.10;3.70;;;;;20.40;99091.00;;;;2078962;28;20214;-53
2021/01/30 04:24:46;;;;;;;3.97;3.67;;;;;20.40;99094.00;;;;2078631;28;20210;-52
2021/01/30 04:25:47;;;;;;;5.10;4.60;;;;;20.40;99099.00;;;;2077991;28;20210;-53
2021/01/30 04:26:48;;;;;;;4.00;3.70;;;;;20.40;99103.00;;;;2078818;28;20344;-52
2021/01/30 04:27:48;;;;;;;4.60;4.30;;;;;20.40;99093.00;;;;2068588;28;20207;-52
2021/01/30 04:28:49;;;;;;;4.37;4.07;;;;;20.40;99095.00;;;;2079033;28;20237;-53
2021/01/30 04:29:50;;;;;;;4.60;4.30;;;;;20.40;99096.00;;;;2078207;28;20214;-54
2021/01/30 04:30:50;;;;;;;4.07;3.77;;;;;20.40;99089.00;;;;2078930;28;20217;-53
2021/01/30 04:31:55;;;;;;;4.20;3.90;;;;;20.40;99092.00;;;;2079040;28;20825;-52
2021/01/30 04:32:55;;;;;;;4.07;3.78;;;;;20.40;99086.00;;;;2073388;28;20341;-52
2021/01/30 04:33:55;;;;;;;4.40;4.10;;;;;20.40;99082.00;;;;2079088;28;20276;-52
2021/01/30 04:34:56;;;;;;;4.30;4.00;;;;;20.40;99082.00;;;;2078791;28;20206;-51
2021/01/30 04:35:56;;;;;;;4.87;4.47;;;;;20.40;99082.00;;;;2077846;28;20202;-52
2021/01/30 04:36:57;;;;;;;3.90;3.60;;;;;20.40;99086.00;;;;2078849;28;20313;-52
2021/01/30 04:37:57;;;;;;;4.40;4.10;;;;;20.30;99085.00;;;;2078988;28;20294;-53
2021/01/30 04:38:57;;;;;;;3.70;3.50;;;;;20.40;99087.00;;;;2078838;28;20224;-53
2021/01/30 04:39:58;;;;;;;4.53;4.13;;;;;20.40;99083.00;;;;2078630;28;20686;-52
2021/01/30 04:41:23;;;;;;;4.07;3.77;;;;;20.40;99084.00;;;;2078522;28;20217;-54
2021/01/30 04:42:42;;;;;;;4.07;3.78;;;;;20.30;99086.00;;;;2078546;28;20221;-52
2021/01/30 04:43:46;;;;;;;3.90;3.60;;;;;20.30;99076.00;;;;2077970;28;20220;-52
2021/01/30 04:44:53;;;;;;;4.28;3.97;;;;;20.30;99092.00;;;;2077617;28;20239;-52
2021/01/30 04:46:01;;;;;;;4.28;3.97;;;;;20.30;99078.00;;;;2060362;28;20210;-52
2021/01/30 04:47:16;;;;;;;4.35;4.05;;;;;20.30;99085.00;;;;2061417;28;20226;-52
2021/01/30 04:48:53;;;;;;;4.22;3.92;;;;;20.30;99084.00;;;;2074820;28;20213;-52
2021/01/30 04:50:05;;;;;;;4.22;3.92;;;;;20.30;99093.00;;;;2067196;28;20207;-51
2021/01/30 04:51:23;;;;;;;3.80;3.50;;;;;20.30;99093.00;;;;2078036;28;20221;-52
2021/01/30 04:52:59;;;;;;;3.88;3.58;;;;;20.30;99086.00;;;;2077755;28;20209;-52
2021/01/30 04:54:04;;;;;;;4.20;3.90;;;;;20.30;99096.00;;;;2061089;28;20707;-52
2021/01/30 04:55:07;;;;;;;4.88;4.47;;;;;20.30;99084.00;;;;2069691;28;20215;-52
2021/01/30 04:56:29;;;;;;;4.18;3.88;;;;;20.30;99074.00;;;;2076760;28;20221;-52
2021/01/30 04:58:08;;;;;;;4.70;4.40;;;;;20.30;99083.00;;;;2074196;28;20751;-51
2021/01/30 04:59:20;;;;;;;4.13;3.83;;;;;20.30;99080.00;;;;2078113;28;20233;-52
2021/01/30 05:00:30;;;;;;;4.22;3.92;;;;;20.30;99080.00;;;;2077786;28;20224;-52
2021/01/30 05:01:38;;;;;;;4.38;4.07;;;;;20.30;99078.00;;;;2078221;28;20241;-54
2021/01/30 05:02:57;;;;;;;4.50;4.20;;;;;20.30;99088.00;;;;2063634;28;20217;-51
2021/01/30 05:04:00;;;;;;;5.05;4.65;;;;;20.30;99088.00;;;;2070938;28;20225;-54
2021/01/30 05:05:00;;;;;;;4.20;3.90;;;;;20.30;99093.00;;;;2078070;28;20225;-52
2021/01/30 05:06:05;;;;;;;4.50;4.20;;;;;20.30;99085.00;;;;2077071;28;20781;-52
2021/01/30 05:07:17;;;;;;;4.68;4.38;;;;;20.20;99091.00;;;;2078083;28;20228;-52
2021/01/30 05:08:23;;;;;;;4.22;3.92;;;;;20.30;99090.00;;;;2078092;28;20265;-52
2021/01/30 05:09:40;;;;;;;4.50;4.10;;;;;20.30;99092.00;;;;2078044;28;20559;-52
2021/01/30 05:10:42;;;;;;;4.10;3.80;;;;;20.20;99086.00;;;;2078047;28;20221;-54
2021/01/30 05:11:52;;;;;;;4.50;4.20;;;;;20.20;99088.00;;;;2072051;28;20207;-52
2021/01/30 05:12:59;;;;;;;4.90;4.60;;;;;20.20;99087.00;;;;2077581;28;20213;-53
2021/01/30 05:14:12;;;;;;;4.35;4.05;;;;;20.20;99087.00;;;;2068307;28;20206;-52
2021/01/30 05:15:24;;;;;;;3.85;3.65;;;;;20.20;99089.00;;;;2058807;28;20222;-54
2021/01/30 05:17:09;;;;;;;4.70;4.40;;;;;20.20;99087.00;;;;2071033;28;20217;-53
2021/01/30 05:18:20;;;;;;;4.32;4.03;;;;;20.20;99073.00;;;;2035001;29;20271;-52
2021/01/30 05:19:20;;;;;;;4.72;4.43;;;;;20.20;99074.00;;;;2045929;28;20754;-53
2021/01/30 05:20:20;;;;;;;4.20;3.90;;;;;20.20;99078.00;;;;2053425;28;20223;-53
2021/01/30 05:21:38;;;;;;;4.30;4.00;;;;;20.20;99073.00;;;;2053160;28;20720;-53
2021/01/30 05:22:40;;;;;;;4.68;4.38;;;;;20.20;99080.00;;;;2053039;28;20219;-53